Time;durP1;ratioP1;P1;durP2;ratioP2;P2;SDS_P1;SDS_P2;PMS_P1;PMS_P2;Temp;Humidity;BMP_temperature;BMP_pressure;BME280_temperature;BME280_humidity;BME280_pressure;Samples;Min_cycle;Max_cycle;Signal;HPM_P1;HPM_P2
2021/12/04 00:00:38;;;;;;;0.00;0.00;;;4.00;72.90;;;;;;4957100;29;20516;-74
2021/12/04 00:03:04;;;;;;;0.00;0.00;;;3.90;72.90;;;;;;4956362;29;20061;-75
2021/12/04 00:05:30;;;;;;;0.00;0.00;;;3.90;72.80;;;;;;4958390;29;20169;-75
2021/12/04 00:07:57;;;;;;;0.00;0.00;;;3.80;72.90;;;;;;4958180;29;20031;-75
2021/12/04 00:10:27;;;;;;;0.00;0.00;;;3.70;73.00;;;;;;4958212;29;20042;-75
2021/12/04 00:12:53;;;;;;;0.00;0.00;;;3.70;73.00;;;;;;4958252;29;20027;-76
2021/12/04 00:15:19;;;;;;;0.00;0.00;;;3.70;73.20;;;;;;4956954;29;20362;-75
2021/12/04 00:17:45;;;;;;;0.00;0.00;;;3.70;73.20;;;;;;4957842;29;20027;-76
2021/12/04 00:20:12;;;;;;;0.00;0.00;;;3.70;73.20;;;;;;4957959;29;20035;-75
2021/12/04 00:22:38;;;;;;;0.00;0.00;;;3.70;73.10;;;;;;4956785;29;20392;-75
2021/12/04 00:25:07;;;;;;;0.00;0.00;;;3.60;73.00;;;;;;4956938;28;20031;-75
2021/12/04 00:27:33;;;;;;;0.00;0.00;;;3.60;73.00;;;;;;4957901;28;20035;-76
2021/12/04 00:29:59;;;;;;;0.00;0.00;;;3.50;72.90;;;;;;4956490;29;20037;-76
2021/12/04 00:32:30;;;;;;;0.00;0.00;;;3.50;73.00;;;;;;4956478;29;20023;-75
2021/12/04 00:35:20;;;;;;;0.00;0.00;;;3.40;73.10;;;;;;4956409;29;20023;-75
2021/12/04 00:51:46;;;;;;;0.00;0.00;;;3.20;73.00;;;;;;4957158;29;20110;-76
2021/12/04 00:54:14;;;;;;;0.00;0.00;;;3.20;73.10;;;;;;4957389;29;20101;-74
2021/12/04 00:56:41;;;;;;;0.00;0.00;;;3.10;73.00;;;;;;4957490;29;20531;-75
2021/12/04 00:59:08;;;;;;;0.00;0.00;;;3.10;73.10;;;;;;4956872;29;20468;-73
2021/12/04 01:01:36;;;;;;;0.00;0.00;;;3.10;73.30;;;;;;4957048;29;20110;-74
2021/12/04 01:04:02;;;;;;;0.00;0.00;;;3.00;73.10;;;;;;4957105;29;20106;-74
2021/12/04 01:06:27;;;;;;;0.00;0.00;;;3.00;73.40;;;;;;4957553;29;20074;-74
2021/12/04 01:08:53;;;;;;;0.00;0.00;;;2.90;73.30;;;;;;4956623;29;20062;-76
2021/12/04 01:11:19;;;;;;;0.00;0.00;;;2.90;73.30;;;;;;4955946;29;20532;-76
2021/12/04 01:13:45;;;;;;;0.00;0.00;;;2.80;73.40;;;;;;4956734;29;20110;-76
2021/12/04 01:16:11;;;;;;;0.00;0.00;;;2.80;73.50;;;;;;4957112;29;20034;-75
2021/12/04 01:18:37;;;;;;;0.00;0.00;;;2.80;73.50;;;;;;4956937;29;20039;-75
2021/12/04 01:21:03;;;;;;;0.00;0.00;;;2.70;73.80;;;;;;4956797;28;20031;-76
2021/12/04 01:23:29;;;;;;;0.00;0.00;;;2.70;73.60;;;;;;4956721;29;20031;-75
2021/12/04 01:25:55;;;;;;;0.00;0.00;;;2.70;73.50;;;;;;4956823;29;20062;-74
2021/12/04 01:28:21;;;;;;;0.03;0.03;;;2.60;73.60;;;;;;4956653;29;20027;-73
2021/12/04 01:30:46;;;;;;;0.00;0.00;;;2.60;74.30;;;;;;4956830;29;20429;-74
2021/12/04 01:33:12;;;;;;;0.00;0.00;;;2.60;73.70;;;;;;4954927;29;20038;-75
2021/12/04 01:35:38;;;;;;;0.00;0.00;;;2.60;74.40;;;;;;4954370;28;20055;-76
2021/12/04 01:38:03;;;;;;;0.00;0.00;;;2.50;73.80;;;;;;4956289;29;20457;-75
2021/12/04 01:40:29;;;;;;;0.00;0.00;;;2.50;73.80;;;;;;4956765;29;20437;-75
2021/12/04 01:42:55;;;;;;;0.00;0.00;;;2.50;73.90;;;;;;4956165;29;20055;-75
2021/12/04 01:45:21;;;;;;;0.00;0.00;;;2.40;73.90;;;;;;4956893;29;20036;-75
2021/12/04 01:47:47;;;;;;;0.00;0.00;;;2.40;73.80;;;;;;4956227;29;20422;-76
2021/12/04 01:50:13;;;;;;;0.00;0.00;;;2.50;73.90;;;;;;4956052;28;20073;-74
2021/12/04 01:52:39;;;;;;;0.00;0.00;;;2.50;74.00;;;;;;4955127;29;20437;-75
2021/12/04 01:55:07;;;;;;;0.00;0.00;;;2.40;73.90;;;;;;4954724;29;20062;-74
2021/12/04 01:57:32;;;;;;;0.00;0.00;;;2.40;73.90;;;;;;4956253;29;20023;-74
2021/12/04 01:59:59;;;;;;;0.00;0.00;;;2.40;73.90;;;;;;4956056;29;20035;-74
2021/12/04 02:02:24;;;;;;;0.00;0.00;;;2.40;73.80;;;;;;4955836;29;20154;-74
2021/12/04 02:04:50;;;;;;;0.00;0.00;;;2.40;73.70;;;;;;4956146;29;20102;-74
2021/12/04 02:07:19;;;;;;;0.00;0.00;;;2.40;73.70;;;;;;4955748;29;20027;-75
2021/12/04 02:09:44;;;;;;;0.00;0.00;;;2.40;73.60;;;;;;4955923;29;20174;-75
2021/12/04 02:12:11;;;;;;;0.00;0.00;;;2.30;73.70;;;;;;4955686;28;20513;-74
2021/12/04 02:14:38;;;;;;;0.00;0.00;;;2.30;73.60;;;;;;4955608;29;20118;-74
2021/12/04 02:17:05;;;;;;;0.00;0.00;;;2.30;73.60;;;;;;4955791;29;20023;-74
2021/12/04 02:19:32;;;;;;;0.00;0.00;;;2.20;73.60;;;;;;4954676;29;20035;-73
2021/12/04 02:21:57;;;;;;;0.00;0.00;;;2.20;73.70;;;;;;4954641;29;20465;-75
2021/12/04 02:24:23;;;;;;;0.00;0.00;;;2.10;73.80;;;;;;4955677;29;20119;-75
2021/12/04 02:26:50;;;;;;;0.00;0.00;;;2.10;73.90;;;;;;4955940;29;20033;-75
2021/12/04 02:29:17;;;;;;;0.00;0.00;;;2.20;74.00;;;;;;4955217;29;20039;-75
2021/12/04 02:31:52;;;;;;;0.00;0.00;;;2.10;74.00;;;;;;4955836;29;20074;-75
2021/12/04 02:34:23;;;;;;;0.00;0.00;;;2.20;74.00;;;;;;4955448;28;20034;-75
2021/12/04 02:36:49;;;;;;;0.00;0.00;;;2.20;74.00;;;;;;4955703;29;20473;-74
2021/12/04 02:39:37;;;;;;;0.00;0.00;;;2.10;73.80;;;;;;4954219;29;20122;-74
2021/12/04 02:42:07;;;;;;;0.00;0.00;;;2.20;73.90;;;;;;4955548;29;20031;-74
2021/12/04 02:44:41;;;;;;;0.00;0.00;;;2.20;73.90;;;;;;4954394;29;20381;-74
2021/12/04 02:47:08;;;;;;;0.00;0.00;;;2.10;73.80;;;;;;4954839;28;20099;-75
2021/12/04 02:49:34;;;;;;;0.00;0.00;;;2.10;73.90;;;;;;4954027;28;20090;-74
2021/12/04 02:52:05;;;;;;;0.00;0.00;;;2.10;73.80;;;;;;4955466;29;20034;-75
2021/12/04 02:54:31;;;;;;;0.00;0.00;;;2.10;73.80;;;;;;4955109;29;20031;-76
2021/12/04 02:56:57;;;;;;;0.00;0.00;;;2.10;73.70;;;;;;4955405;29;20027;-74
2021/12/04 02:59:24;;;;;;;0.00;0.00;;;2.10;73.80;;;;;;4955329;29;20444;-75
2021/12/04 03:01:53;;;;;;;0.00;0.00;;;2.10;73.70;;;;;;4953951;29;20035;-76
2021/12/04 03:04:21;;;;;;;0.00;0.00;;;2.00;73.60;;;;;;4953984;29;20126;-75
2021/12/04 03:06:47;;;;;;;0.00;0.00;;;2.00;73.50;;;;;;4954113;29;20038;-75
2021/12/04 03:09:14;;;;;;;0.00;0.00;;;2.00;73.50;;;;;;4954877;29;20114;-75
2021/12/04 03:11:40;;;;;;;0.00;0.00;;;1.90;73.40;;;;;;4954051;29;20035;-74
2021/12/04 03:14:06;;;;;;;0.00;0.00;;;1.90;73.60;;;;;;4953983;29;20350;-75
2021/12/04 03:16:34;;;;;;;0.05;0.05;;;1.90;73.50;;;;;;4955268;29;20374;-75
2021/12/04 03:19:00;;;;;;;0.00;0.00;;;1.80;73.60;;;;;;4955584;29;20030;-75
2021/12/04 03:21:26;;;;;;;0.00;0.00;;;1.80;73.70;;;;;;4955222;29;20027;-74
2021/12/04 03:23:57;;;;;;;0.00;0.00;;;1.70;73.60;;;;;;4955162;29;20039;-74
2021/12/04 03:26:24;;;;;;;0.00;0.00;;;1.70;73.70;;;;;;4954940;29;20038;-75
2021/12/04 03:28:51;;;;;;;0.00;0.00;;;1.70;73.80;;;;;;4955231;29;20023;-75
2021/12/04 03:42:19;;;;;;;0.00;0.00;;;1.60;73.90;;;;;;4954860;29;20030;-75
2021/12/04 03:44:45;;;;;;;0.00;0.00;;;1.60;73.80;;;;;;4954839;29;20397;-74
2021/12/04 03:47:11;;;;;;;0.00;0.00;;;1.60;73.90;;;;;;4953605;29;20138;-74
2021/12/04 03:49:38;;;;;;;0.00;0.00;;;1.60;74.00;;;;;;4954885;28;20035;-75
2021/12/04 03:52:05;;;;;;;0.00;0.00;;;1.60;74.00;;;;;;4954723;29;20374;-75
2021/12/04 03:54:30;;;;;;;0.00;0.00;;;1.50;74.00;;;;;;4953401;29;20159;-74
2021/12/04 03:57:06;;;;;;;0.00;0.00;;;1.60;74.00;;;;;;4955061;29;20114;-73
2021/12/04 03:59:39;;;;;;;0.00;0.00;;;1.50;74.00;;;;;;4956455;28;20082;-74
2021/12/04 04:02:07;;;;;;;0.00;0.00;;;1.50;74.10;;;;;;4958095;29;20063;-74
2021/12/04 04:04:33;;;;;;;0.00;0.00;;;1.50;74.00;;;;;;4958351;29;20054;-75
2021/12/04 04:07:00;;;;;;;0.00;0.00;;;1.50;74.00;;;;;;4958337;29;20082;-74
2021/12/04 04:09:29;;;;;;;0.00;0.00;;;1.40;74.00;;;;;;4958437;29;20039;-75
2021/12/04 04:11:55;;;;;;;0.00;0.00;;;1.40;74.10;;;;;;4958214;29;20508;-75
2021/12/04 04:14:22;;;;;;;0.00;0.00;;;1.40;74.20;;;;;;4958247;28;20385;-74
2021/12/04 04:16:48;;;;;;;0.00;0.00;;;1.40;74.30;;;;;;4956634;29;20074;-75
2021/12/04 04:19:13;;;;;;;0.00;0.00;;;1.40;74.30;;;;;;4957033;29;20032;-75
2021/12/04 04:21:41;;;;;;;0.00;0.00;;;1.40;74.30;;;;;;4956873;29;20027;-75
2021/12/04 04:24:12;;;;;;;0.00;0.00;;;1.30;74.20;;;;;;4958090;29;20055;-75
2021/12/04 04:26:39;;;;;;;0.00;0.00;;;1.30;74.20;;;;;;4956701;29;20495;-75
2021/12/04 04:29:05;;;;;;;0.00;0.00;;;1.30;74.30;;;;;;4956670;29;20122;-75
2021/12/04 04:31:33;;;;;;;0.00;0.00;;;1.30;74.40;;;;;;4957880;28;20031;-75
2021/12/04 04:34:04;;;;;;;0.00;0.00;;;1.30;74.30;;;;;;4957676;28;20118;-74
2021/12/04 04:58:26;;;;;;;0.00;0.00;;;1.20;74.60;;;;;;4957497;29;20035;-74
2021/12/04 05:11:39;;;;;;;0.00;0.00;;;1.10;74.70;;;;;;4929650;28;20460;-75
2021/12/04 05:14:05;;;;;;;0.00;0.00;;;1.10;74.80;;;;;;4956003;29;20027;-74
2021/12/04 05:16:43;;;;;;;0.00;0.00;;;1.10;74.80;;;;;;4957458;28;20023;-75
2021/12/04 05:19:24;;;;;;;0.00;0.00;;;1.00;74.80;;;;;;4957042;28;20031;-75
2021/12/04 05:21:50;;;;;;;0.00;0.00;;;1.00;74.80;;;;;;4955890;29;20043;-75
2021/12/04 05:24:16;;;;;;;0.00;0.00;;;1.00;74.80;;;;;;4956618;28;20518;-75
2021/12/04 05:26:42;;;;;;;0.00;0.00;;;1.00;74.90;;;;;;4956741;29;20035;-75
2021/12/04 05:29:08;;;;;;;0.00;0.00;;;1.00;74.90;;;;;;4955640;29;20035;-76
2021/12/04 05:31:33;;;;;;;0.00;0.00;;;1.10;75.00;;;;;;4956646;29;20492;-75
2021/12/04 05:33:59;;;;;;;0.00;0.00;;;1.10;75.10;;;;;;4955646;29;20521;-75
2021/12/04 05:36:25;;;;;;;0.00;0.00;;;1.10;75.10;;;;;;4956380;29;20114;-74
2021/12/04 05:38:51;;;;;;;0.00;0.00;;;1.10;75.10;;;;;;4956879;28;20042;-75
2021/12/04 05:41:17;;;;;;;0.00;0.00;;;1.10;75.10;;;;;;4956395;28;20098;-75
2021/12/04 05:43:44;;;;;;;0.00;0.00;;;1.10;75.00;;;;;;4956697;28;20039;-76
2021/12/04 05:48:41;;;;;;;0.00;0.00;;;1.10;75.00;;;;;;4956222;29;20082;-76
2021/12/04 05:56:09;;;;;;;0.00;0.00;;;1.20;75.00;;;;;;4956351;28;20054;-77
2021/12/04 05:58:38;;;;;;;0.00;0.00;;;1.20;75.00;;;;;;4956434;29;20505;-76
2021/12/04 06:01:07;;;;;;;0.00;0.00;;;1.20;75.00;;;;;;4954415;29;20059;-76
2021/12/04 06:03:34;;;;;;;0.00;0.00;;;1.20;75.00;;;;;;4955923;28;20066;-75
2021/12/04 06:05:59;;;;;;;0.00;0.00;;;1.20;74.90;;;;;;4955914;28;20027;-75
2021/12/04 06:08:25;;;;;;;0.00;0.00;;;1.30;75.10;;;;;;4956030;28;20035;-74
2021/12/04 06:10:52;;;;;;;0.00;0.00;;;1.20;75.00;;;;;;4956062;28;20042;-76
2021/12/04 06:13:19;;;;;;;0.00;0.00;;;1.30;75.00;;;;;;4954805;29;20027;-75
2021/12/04 06:15:45;;;;;;;0.00;0.00;;;1.30;75.00;;;;;;4955632;28;20396;-76
2021/12/04 06:18:13;;;;;;;0.00;0.00;;;1.30;74.90;;;;;;4955295;28;20110;-77
2021/12/04 06:23:23;;;;;;;0.00;0.00;;;1.40;75.00;;;;;;4955633;29;20142;-75
2021/12/04 06:25:49;;;;;;;0.00;0.00;;;1.40;74.90;;;;;;4955978;28;20056;-75
2021/12/04 06:28:16;;;;;;;0.00;0.00;;;1.50;75.00;;;;;;4956035;28;20031;-75
2021/12/04 06:30:43;;;;;;;0.00;0.00;;;1.60;75.10;;;;;;4955778;28;20389;-75
2021/12/04 06:33:11;;;;;;;0.00;0.00;;;1.70;75.00;;;;;;4955813;28;20094;-75
2021/12/04 06:35:41;;;;;;;0.00;0.00;;;1.80;74.80;;;;;;4955528;28;20388;-76
2021/12/04 06:38:11;;;;;;;0.10;0.10;;;1.80;74.60;;;;;;4954413;29;20039;-75
2021/12/04 06:40:38;;;;;;;0.00;0.00;;;1.90;74.70;;;;;;4955907;28;20449;-74
2021/12/04 06:43:05;;;;;;;0.05;0.05;;;2.10;74.70;;;;;;4955334;28;20102;-74
2021/12/04 06:45:33;;;;;;;0.00;0.00;;;2.10;74.60;;;;;;4955509;28;20038;-75
2021/12/04 06:48:06;;;;;;;0.00;0.00;;;2.30;74.60;;;;;;4954221;29;20031;-76
2021/12/04 06:50:49;;;;;;;0.00;0.00;;;2.40;74.50;;;;;;4955415;28;20039;-74
2021/12/04 06:55:59;;;;;;;0.10;0.10;;;2.70;74.10;;;;;;4955658;28;20066;-77
2021/12/04 06:58:27;;;;;;;0.00;0.00;;;2.80;73.60;;;;;;4954057;29;20469;-76
2021/12/04 07:00:53;;;;;;;0.00;0.00;;;2.90;73.50;;;;;;4955489;28;20041;-75
2021/12/04 07:03:21;;;;;;;0.00;0.00;;;3.00;73.80;;;;;;4954038;29;20532;-77
2021/12/04 07:05:47;;;;;;;0.00;0.00;;;3.00;73.00;;;;;;4953529;29;20115;-75
2021/12/04 07:08:13;;;;;;;0.00;0.00;;;3.10;73.10;;;;;;4954211;29;20453;-75
2021/12/04 07:10:39;;;;;;;0.00;0.00;;;3.20;73.00;;;;;;4953932;29;20074;-75
2021/12/04 07:13:06;;;;;;;0.00;0.00;;;3.30;72.90;;;;;;4955013;29;20059;-75
2021/12/04 07:15:32;;;;;;;0.00;0.00;;;3.40;72.90;;;;;;4955177;28;20027;-75
2021/12/04 07:18:02;;;;;;;0.00;0.00;;;3.60;73.00;;;;;;4937984;29;20532;-76
2021/12/04 07:20:29;;;;;;;0.10;0.10;;;3.80;72.70;;;;;;4954983;28;20035;-75
2021/12/04 07:22:55;;;;;;;0.00;0.00;;;4.00;72.30;;;;;;4953887;29;20028;-75
2021/12/04 07:25:21;;;;;;;0.00;0.00;;;4.20;71.90;;;;;;4953969;29;20058;-75
2021/12/04 07:27:50;;;;;;;0.00;0.00;;;4.40;71.60;;;;;;4953511;29;20042;-75
2021/12/04 07:30:16;;;;;;;0.00;0.00;;;4.60;71.30;;;;;;4954009;29;20374;-75
2021/12/04 07:32:42;;;;;;;0.00;0.00;;;4.90;71.10;;;;;;4954220;28;20031;-76
2021/12/04 07:35:08;;;;;;;0.00;0.00;;;5.20;71.10;;;;;;4957435;29;20391;-76
2021/12/04 07:37:34;;;;;;;0.00;0.00;;;5.70;70.90;;;;;;4958468;28;20030;-75
2021/12/04 07:40:01;;;;;;;0.00;0.00;;;6.20;70.50;;;;;;4957206;29;20540;-78
2021/12/04 07:42:28;;;;;;;0.00;0.00;;;6.70;70.30;;;;;;4958983;28;20019;-75
2021/12/04 07:44:53;;;;;;;0.00;0.00;;;7.30;70.20;;;;;;4958590;29;20493;-76
2021/12/04 07:47:19;;;;;;;0.00;0.00;;;7.90;69.70;;;;;;4957267;29;20377;-75
2021/12/04 07:49:45;;;;;;;0.00;0.00;;;8.60;68.40;;;;;;4958395;28;20114;-76
2021/12/04 07:52:11;;;;;;;0.00;0.00;;;9.00;63.70;;;;;;4958334;29;20079;-76
2021/12/04 07:54:38;;;;;;;0.00;0.00;;;9.40;62.50;;;;;;4958158;28;20429;-75
2021/12/04 07:57:05;;;;;;;0.00;0.00;;;9.90;62.40;;;;;;4958327;29;20034;-76
2021/12/04 07:59:31;;;;;;;0.00;0.00;;;10.30;61.80;;;;;;4957039;29;20031;-76
2021/12/04 08:01:58;;;;;;;0.00;0.00;;;10.80;61.40;;;;;;4958140;29;20042;-76
2021/12/04 08:04:25;;;;;;;0.00;0.00;;;11.50;60.30;;;;;;4958338;28;20031;-76
2021/12/04 08:06:53;;;;;;;0.00;0.00;;;12.10;59.30;;;;;;4959876;28;20050;-76
2021/12/04 08:09:21;;;;;;;0.00;0.00;;;12.80;58.10;;;;;;4958209;29;20031;-77
2021/12/04 08:11:50;;;;;;;0.00;0.00;;;13.50;56.80;;;;;;4958694;29;20030;-76
2021/12/04 08:14:18;;;;;;;0.00;0.00;;;14.20;55.30;;;;;;4957965;28;20031;-74
2021/12/04 08:16:44;;;;;;;0.00;0.00;;;14.80;53.90;;;;;;4958258;29;20110;-77
2021/12/04 08:19:10;;;;;;;0.00;0.00;;;15.40;52.10;;;;;;4941365;29;20024;-76
2021/12/04 08:21:37;;;;;;;0.00;0.00;;;15.80;50.70;;;;;;4958992;28;20027;-75
2021/12/04 08:24:06;;;;;;;0.00;0.00;;;16.20;49.30;;;;;;4959917;28;20031;-75
2021/12/04 08:26:38;;;;;;;0.00;0.00;;;16.70;48.00;;;;;;4959367;29;20034;-76
2021/12/04 08:29:05;;;;;;;0.00;0.00;;;17.30;46.50;;;;;;4959977;28;20058;-75
2021/12/04 08:31:33;;;;;;;0.00;0.00;;;17.80;45.80;;;;;;4957964;28;20078;-76
2021/12/04 08:34:02;;;;;;;0.00;0.00;;;18.30;44.10;;;;;;4960945;28;20055;-75
2021/12/04 08:36:29;;;;;;;0.00;0.00;;;18.70;42.50;;;;;;4961940;28;20027;-75
2021/12/04 08:38:56;;;;;;;0.00;0.00;;;19.10;41.30;;;;;;4962761;28;20027;-75
2021/12/04 08:41:22;;;;;;;0.00;0.00;;;19.40;40.40;;;;;;4960313;28;20054;-76
2021/12/04 08:43:49;;;;;;;0.00;0.00;;;19.90;39.70;;;;;;4957643;29;20462;-74
2021/12/04 08:46:20;;;;;;;0.00;0.00;;;20.30;39.00;;;;;;4955892;28;20031;-75
2021/12/04 08:48:47;;;;;;;0.00;0.00;;;20.60;38.40;;;;;;4957674;28;20023;-77
2021/12/04 08:51:13;;;;;;;0.00;0.00;;;20.90;37.90;;;;;;4957378;28;20362;-76
2021/12/04 08:53:41;;;;;;;0.00;0.00;;;21.10;37.40;;;;;;4957236;28;20027;-75
2021/12/04 08:56:06;;;;;;;0.00;0.00;;;21.40;36.90;;;;;;4958171;28;20047;-76
2021/12/04 08:58:35;;;;;;;0.00;0.00;;;21.70;36.50;;;;;;4956125;29;20489;-76
2021/12/04 09:01:05;;;;;;;0.00;0.00;;;22.10;36.00;;;;;;4956014;29;20367;-77
2021/12/04 09:03:36;;;;;;;0.00;0.00;;;22.50;35.30;;;;;;4956722;28;20441;-76
2021/12/04 09:06:04;;;;;;;0.00;0.00;;;22.70;34.70;;;;;;4955881;29;20027;-75
2021/12/04 09:08:31;;;;;;;0.00;0.00;;;23.00;34.50;;;;;;4956789;28;20031;-76
2021/12/04 09:11:00;;;;;;;0.00;0.00;;;23.30;34.20;;;;;;4957107;28;20042;-75
2021/12/04 09:13:28;;;;;;;0.00;0.00;;;23.60;33.70;;;;;;4955771;29;20027;-75
2021/12/04 09:15:56;;;;;;;0.00;0.00;;;23.80;33.50;;;;;;4953709;28;20047;-75
2021/12/04 09:18:24;;;;;;;0.00;0.00;;;24.10;33.30;;;;;;4956667;28;20027;-76
2021/12/04 09:20:50;;;;;;;0.00;0.00;;;24.50;32.90;;;;;;4955895;29;20039;-75
2021/12/04 09:23:19;;;;;;;0.00;0.00;;;24.90;32.50;;;;;;4957233;28;20061;-75
2021/12/04 09:25:51;;;;;;;0.00;0.00;;;25.10;32.00;;;;;;4956674;28;20147;-75
2021/12/04 10:03:34;;;;;;;0.00;0.00;;;23.00;31.80;;;;;;4956089;29;20047;-74
2021/12/04 10:19:59;;;;;;;0.00;0.00;;;23.60;31.50;;;;;;4955388;29;20081;-75
2021/12/04 10:22:32;;;;;;;0.00;0.00;;;24.30;31.60;;;;;;4955245;29;20054;-75
2021/12/04 10:33:19;;;;;;;0.00;0.00;;;25.70;30.50;;;;;;4953571;29;20055;-76
2021/12/04 10:35:48;;;;;;;0.00;0.00;;;25.90;30.30;;;;;;4951655;29;20027;-76
2021/12/04 10:38:25;;;;;;;0.00;0.00;;;25.50;30.00;;;;;;4954505;28;20027;-75
2021/12/04 10:40:53;;;;;;;0.00;0.00;;;25.00;30.00;;;;;;4952888;29;20063;-75
2021/12/04 10:43:26;;;;;;;0.00;0.00;;;24.70;30.50;;;;;;4954488;28;20020;-76
2021/12/04 10:45:57;;;;;;;0.00;0.00;;;24.70;30.50;;;;;;4954401;28;20114;-75
2021/12/04 10:48:28;;;;;;;0.00;0.00;;;25.00;30.60;;;;;;4952973;29;20381;-75
2021/12/04 10:53:35;;;;;;;0.00;0.00;;;25.70;30.20;;;;;;4952354;29;20023;-75
2021/12/04 10:59:10;;;;;;;0.00;0.00;;;26.30;30.00;;;;;;4954427;28;20043;-77
2021/12/04 11:04:52;;;;;;;0.00;0.00;;;26.70;29.70;;;;;;4952827;29;20477;-75
2021/12/04 11:42:46;;;;;;;0.00;0.00;;;23.20;31.10;;;;;;4958401;28;20046;-75
2021/12/04 11:45:21;;;;;;;0.00;0.00;;;23.30;31.30;;;;;;4958557;28;20039;-76
2021/12/04 11:47:55;;;;;;;0.00;0.00;;;23.60;31.20;;;;;;4958368;28;20359;-76
2021/12/04 11:50:26;;;;;;;0.00;0.00;;;23.90;30.90;;;;;;4957229;28;20504;-76
2021/12/04 11:52:55;;;;;;;0.00;0.00;;;24.10;30.70;;;;;;4958267;29;20035;-76
2021/12/04 11:55:24;;;;;;;0.00;0.00;;;24.40;30.60;;;;;;4957951;28;20046;-76
2021/12/04 11:57:51;;;;;;;0.00;0.00;;;24.50;30.50;;;;;;4956957;29;20526;-75
2021/12/04 12:00:24;;;;;;;0.00;0.00;;;24.70;30.50;;;;;;4957080;29;20038;-76
2021/12/04 12:02:52;;;;;;;0.00;0.00;;;24.90;30.40;;;;;;4958297;28;20409;-75
2021/12/04 12:05:21;;;;;;;0.00;0.00;;;25.00;30.20;;;;;;4957040;29;20034;-76
2021/12/04 12:07:55;;;;;;;0.00;0.00;;;25.10;30.00;;;;;;4957164;28;20027;-75
2021/12/04 12:10:25;;;;;;;0.00;0.00;;;25.10;29.90;;;;;;4956833;29;20031;-76
2021/12/04 12:13:04;;;;;;;0.00;0.00;;;25.10;30.00;;;;;;4957526;28;20038;-74
2021/12/04 12:15:34;;;;;;;0.00;0.00;;;25.10;30.00;;;;;;4958124;28;20031;-75
2021/12/04 12:18:16;;;;;;;0.00;0.00;;;25.20;29.90;;;;;;4957647;28;20030;-76
2021/12/04 12:21:04;;;;;;;0.00;0.00;;;25.10;29.80;;;;;;4956773;28;20059;-76
2021/12/04 12:23:32;;;;;;;0.00;0.00;;;25.10;29.90;;;;;;4958007;28;20034;-75
2021/12/04 12:36:02;;;;;;;0.00;0.00;;;24.50;29.90;;;;;;4954282;29;20183;-75
2021/12/04 12:37:17;;;;;;;0.00;0.00;;;24.30;30.00;;;;;;4954940;29;20473;-76
2021/12/04 12:39:59;;;;;;;0.00;0.00;;;24.00;30.20;;;;;;4956199;29;20031;-75
2021/12/04 12:42:37;;;;;;;0.00;0.00;;;23.80;30.40;;;;;;4957209;28;20113;-75
2021/12/04 12:45:28;;;;;;;0.00;0.00;;;23.70;30.50;;;;;;4955987;29;20054;-76
2021/12/04 12:48:01;;;;;;;0.00;0.00;;;23.50;30.60;;;;;;4957213;28;20082;-75
2021/12/04 12:50:29;;;;;;;0.00;0.00;;;23.20;30.90;;;;;;4957278;28;20031;-76
2021/12/04 12:53:27;;;;;;;0.00;0.00;;;23.00;31.10;;;;;;4957311;28;20354;-74
2021/12/04 12:56:09;;;;;;;0.00;0.00;;;22.60;31.40;;;;;;4956658;28;20063;-76
2021/12/04 12:58:54;;;;;;;0.00;0.00;;;22.30;31.60;;;;;;4955890;29;20035;-74
2021/12/04 13:13:29;;;;;;;0.00;0.00;;;20.20;33.60;;;;;;4957129;29;20086;-76
2021/12/04 13:16:11;;;;;;;0.00;0.00;;;19.70;34.10;;;;;;4956007;28;20098;-76
2021/12/04 13:18:37;;;;;;;0.08;0.08;;;19.30;34.50;;;;;;4957081;28;20023;-76
2021/12/04 13:21:14;;;;;;;0.00;0.00;;;18.90;35.10;;;;;;4954848;29;20433;-76
2021/12/04 13:23:50;;;;;;;0.00;0.00;;;18.40;35.60;;;;;;4955502;29;20523;-77
2021/12/04 13:26:17;;;;;;;0.00;0.00;;;18.00;36.20;;;;;;4955734;29;20030;-76
2021/12/04 13:28:46;;;;;;;0.00;0.00;;;17.50;36.50;;;;;;4955443;28;20396;-77
2021/12/04 13:31:12;;;;;;;0.00;0.00;;;17.00;37.10;;;;;;4955583;28;20114;-76
2021/12/04 13:33:43;;;;;;;0.00;0.00;;;16.50;37.70;;;;;;4955608;28;20115;-76
2021/12/04 13:36:15;;;;;;;0.00;0.00;;;16.00;38.40;;;;;;4952644;29;20089;-77
2021/12/04 13:38:41;;;;;;;0.00;0.00;;;15.60;39.10;;;;;;4956362;28;20031;-76
2021/12/04 13:41:09;;;;;;;0.00;0.00;;;15.20;39.60;;;;;;4952179;29;20065;-75
2021/12/04 13:43:35;;;;;;;0.00;0.00;;;14.70;40.20;;;;;;4955266;28;20027;-76
2021/12/04 13:46:05;;;;;;;0.00;0.00;;;14.30;40.80;;;;;;4954095;29;20482;-76
2021/12/04 13:48:35;;;;;;;0.00;0.00;;;13.80;41.60;;;;;;4953224;29;20030;-77
2021/12/04 13:51:01;;;;;;;0.00;0.00;;;13.30;42.30;;;;;;4954847;28;20452;-76
2021/12/04 13:53:31;;;;;;;0.00;0.00;;;12.70;43.00;;;;;;4952403;29;20030;-75
2021/12/04 13:56:04;;;;;;;0.00;0.00;;;12.20;44.00;;;;;;4955307;28;20474;-78
2021/12/04 13:58:30;;;;;;;0.00;0.00;;;11.60;44.90;;;;;;4951481;29;20047;-77
2021/12/04 14:00:58;;;;;;;0.00;0.00;;;11.10;45.80;;;;;;4954349;29;20130;-76
2021/12/04 14:03:28;;;;;;;0.00;0.00;;;10.70;46.90;;;;;;4955196;28;20019;-76
2021/12/04 14:05:55;;;;;;;0.00;0.00;;;10.20;48.00;;;;;;4955038;28;20650;-79
2021/12/04 14:08:21;;;;;;;0.00;0.00;;;9.80;48.70;;;;;;4953597;29;20462;-75
2021/12/04 14:10:49;;;;;;;0.00;0.00;;;9.50;49.50;;;;;;4954466;28;20031;-75
2021/12/04 14:13:21;;;;;;;0.00;0.00;;;9.20;50.30;;;;;;4955988;28;20377;-77
2021/12/04 14:15:47;;;;;;;0.00;0.00;;;8.90;51.10;;;;;;4955982;28;20024;-76
2021/12/04 14:18:16;;;;;;;0.00;0.00;;;8.70;51.60;;;;;;4956003;28;20035;-75
2021/12/04 14:20:47;;;;;;;0.00;0.00;;;8.50;52.40;;;;;;4955854;28;20433;-76
2021/12/04 14:23:14;;;;;;;0.00;0.00;;;8.20;53.00;;;;;;4954305;29;20509;-76
2021/12/04 14:25:43;;;;;;;0.00;0.00;;;7.90;53.70;;;;;;4955202;28;20023;-78
2021/12/04 14:28:18;;;;;;;0.00;0.00;;;7.60;54.70;;;;;;4954253;29;20024;-76
2021/12/04 14:30:45;;;;;;;0.00;0.00;;;7.30;55.60;;;;;;4955102;28;20102;-76
2021/12/04 14:33:17;;;;;;;0.00;0.00;;;7.10;56.20;;;;;;4938304;29;20031;-77
2021/12/04 14:35:46;;;;;;;0.00;0.00;;;6.90;57.10;;;;;;4954877;28;20067;-76
2021/12/04 14:38:15;;;;;;;0.00;0.00;;;6.70;57.80;;;;;;4955146;28;20548;-77
2021/12/04 14:40:51;;;;;;;0.00;0.00;;;6.50;58.40;;;;;;4955137;28;20027;-76
2021/12/04 14:43:22;;;;;;;0.00;0.00;;;6.40;59.00;;;;;;4954725;28;20027;-77
2021/12/04 14:45:51;;;;;;;0.00;0.00;;;6.30;59.30;;;;;;4955109;28;20031;-76
2021/12/04 14:48:28;;;;;;;0.00;0.00;;;6.20;58.70;;;;;;4955454;28;20027;-76
2021/12/04 14:51:05;;;;;;;0.00;0.00;;;6.10;59.50;;;;;;4954710;28;20046;-75
2021/12/04 14:53:34;;;;;;;0.10;0.00;;;6.00;60.30;;;;;;4955226;28;20141;-76
2021/12/04 14:56:07;;;;;;;0.00;0.00;;;5.90;60.80;;;;;;4954958;28;20058;-76
2021/12/04 14:58:34;;;;;;;0.00;0.00;;;5.80;61.50;;;;;;4954602;28;20121;-77
2021/12/04 15:01:05;;;;;;;0.00;0.00;;;5.80;61.50;;;;;;4954659;28;20482;-76
2021/12/04 15:03:52;;;;;;;0.00;0.00;;;5.80;60.80;;;;;;4954074;29;20038;-75
2021/12/04 15:06:19;;;;;;;0.00;0.00;;;5.80;61.20;;;;;;4954001;29;20078;-75
2021/12/04 15:08:52;;;;;;;0.00;0.00;;;5.70;60.30;;;;;;4954052;29;20063;-77
2021/12/04 15:11:21;;;;;;;0.00;0.00;;;5.60;60.80;;;;;;4953828;29;20027;-77
2021/12/04 15:13:52;;;;;;;0.00;0.00;;;5.60;61.10;;;;;;4954758;28;20035;-76
2021/12/04 15:16:24;;;;;;;0.00;0.00;;;5.60;61.30;;;;;;4955238;28;20031;-76
2021/12/04 15:18:50;;;;;;;0.00;0.00;;;5.60;61.40;;;;;;4955218;28;20042;-77
2021/12/04 15:21:18;;;;;;;0.00;0.00;;;5.50;60.80;;;;;;4955285;28;20473;-76
2021/12/04 15:23:45;;;;;;;0.00;0.00;;;5.50;61.10;;;;;;4954768;28;20027;-76
2021/12/04 15:26:20;;;;;;;0.00;0.00;;;5.50;61.30;;;;;;4954946;28;20028;-74
2021/12/04 15:28:53;;;;;;;0.00;0.00;;;5.50;61.50;;;;;;4954802;28;20086;-77
2021/12/04 15:31:23;;;;;;;0.00;0.00;;;5.50;61.50;;;;;;4953870;29;20039;-77
2021/12/04 15:33:53;;;;;;;0.00;0.00;;;5.40;60.90;;;;;;4954704;29;20038;-76
2021/12/04 15:36:26;;;;;;;0.00;0.00;;;5.40;61.30;;;;;;4955271;28;20023;-76
2021/12/04 15:39:06;;;;;;;0.00;0.00;;;5.40;61.00;;;;;;4953163;29;20057;-75
2021/12/04 15:54:47;;;;;;;0.00;0.00;;;5.20;62.50;;;;;;4953426;28;20042;-75
2021/12/04 15:57:16;;;;;;;0.00;0.00;;;5.10;62.70;;;;;;4958682;28;20031;-76
2021/12/04 15:59:47;;;;;;;1.30;0.10;;;5.10;62.60;;;;;;4958032;28;20032;-75
2021/12/04 16:02:15;;;;;;;0.20;0.00;;;5.10;62.20;;;;;;4955846;29;20034;-76
2021/12/04 16:04:44;;;;;;;0.00;0.00;;;5.00;62.50;;;;;;4958356;28;20027;-77
2021/12/04 16:07:21;;;;;;;0.00;0.00;;;5.00;62.90;;;;;;4957622;28;20086;-75
2021/12/04 16:09:46;;;;;;;0.00;0.00;;;4.90;62.40;;;;;;4957859;28;20035;-75
2021/12/04 16:12:14;;;;;;;0.28;0.00;;;4.90;62.60;;;;;;4958124;29;20035;-76
2021/12/04 16:14:43;;;;;;;0.00;0.00;;;4.80;62.40;;;;;;4958361;28;20039;-77
2021/12/04 16:17:10;;;;;;;0.00;0.00;;;4.80;62.10;;;;;;4958211;28;20043;-75
2021/12/04 16:19:38;;;;;;;0.10;0.10;;;4.70;62.50;;;;;;4957812;28;20027;-76
2021/12/04 16:22:08;;;;;;;0.00;0.00;;;4.80;62.50;;;;;;4957559;28;20037;-77
2021/12/04 16:24:36;;;;;;;0.10;0.10;;;4.70;62.70;;;;;;4956650;29;20521;-78
2021/12/04 16:27:11;;;;;;;0.00;0.00;;;4.70;62.60;;;;;;4957632;28;20035;-78